KKLS/KLS METAR and TAF weather

Enter ICAO airport designator
Station Type Date Time Source
KKLS METAR 2019/08/24 19:56 UTC NOAA

KKLS 241956Z AUTO VRB03KT 10SM BKN035 OVC065 23/14 A3001 RMK AO2 SLP165 T02280144


Station Type Date Time Source
KKLS Decoded METAR 2019/08/24 19:56 UTC NOAA

Station name not available
Aug 24, 2019 - 03:56 PM EDT / 2019.08.24 1956 UTC
Wind: Variable at 3 MPH (3 KT):0
Visibility: 10 mile(s):0
Sky conditions: overcast
Temperature: 73.0 F (22.8 C)
Dew Point: 57.9 F (14.4 C)
Relative Humidity: 59%
Pressure (altimeter): 30.01 in. Hg (1016 hPa)
ob: KKLS 241956Z AUTO VRB03KT 10SM BKN035 OVC065 23/14 A3001 RMK AO2 SLP165 T02280144
cycle: 20

Station Type Date Time Source
KKLS TAF UTC NOAA

Error!

Example: see airport list